Time;durP1;ratioP1;P1;durP2;ratioP2;P2;SDS_P1;SDS_P2;PMS_P1;PMS_P2;Temp;Humidity;BMP_temperature;BMP_pressure;BME280_temperature;BME280_humidity;BME280_pressure;Samples;Min_cycle;Max_cycle;Signal;HPM_P1;HPM_P2
2022/10/14 00:01:04;;;;;;;133.77;59.65;;;12.40;99.90;;;;;;5052712;28;20076;-64
2022/10/14 00:03:30;;;;;;;106.30;54.22;;;13.30;99.90;;;;;;5052783;28;20124;-65
2022/10/14 00:05:57;;;;;;;102.13;52.72;;;12.80;99.90;;;;;;5052531;28;20081;-63
2022/10/14 00:08:25;;;;;;;117.13;56.28;;;12.70;99.90;;;;;;5052456;28;20503;-62
2022/10/14 00:10:51;;;;;;;135.68;57.75;;;13.00;99.90;;;;;;5052733;28;20041;-62
2022/10/14 00:13:18;;;;;;;99.85;52.58;;;12.80;99.90;;;;;;5052828;28;20040;-63
2022/10/14 00:15:43;;;;;;;131.40;57.05;;;13.20;99.90;;;;;;5055484;28;20037;-63
2022/10/14 00:18:09;;;;;;;126.03;57.17;;;12.70;99.90;;;;;;5054818;28;20052;-63
2022/10/14 00:20:35;;;;;;;116.32;55.83;;;12.90;99.90;;;;;;5056174;28;20037;-63
2022/10/14 00:23:04;;;;;;;123.32;56.90;;;12.90;99.90;;;;;;5055814;28;20064;-63
2022/10/14 00:25:30;;;;;;;124.30;55.95;;;12.80;99.90;;;;;;5056281;28;20416;-63
2022/10/14 00:27:56;;;;;;;145.07;60.95;;;;;;;;;;5054958;28;20415;-62
2022/10/14 00:30:22;;;;;;;140.43;59.67;;;13.00;99.90;;;;;;5056069;28;20055;-63
2022/10/14 00:32:48;;;;;;;123.20;56.28;;;;;;;;;;5056011;28;20036;-62
2022/10/14 00:35:13;;;;;;;129.43;57.92;;;12.30;99.90;;;;;;5055855;28;20041;-63
2022/10/14 00:37:40;;;;;;;130.07;56.35;;;13.20;99.90;;;;;;5056151;28;20037;-63
2022/10/14 00:40:06;;;;;;;131.10;57.97;;;;;;;;;;5055687;28;20043;-62
2022/10/14 00:42:33;;;;;;;131.95;56.65;;;12.60;99.90;;;;;;5056105;28;20048;-63
2022/10/14 00:45:03;;;;;;;115.05;54.88;;;12.80;99.90;;;;;;5055775;28;20087;-63
2022/10/14 00:47:30;;;;;;;148.77;56.75;;;12.50;99.90;;;;;;5055559;28;20052;-63
2022/10/14 00:49:58;;;;;;;133.07;55.03;;;12.80;99.90;;;;;;5055457;28;20116;-63
2022/10/14 00:52:25;;;;;;;98.38;49.22;;;12.80;99.90;;;;;;5055846;28;20052;-63
2022/10/14 00:55:00;;;;;;;146.23;56.63;;;12.30;99.90;;;;;;5055654;28;20041;-59
2022/10/14 00:57:28;;;;;;;130.45;53.38;;;12.20;99.90;;;;;;5055413;28;20071;-59
2022/10/14 01:00:01;;;;;;;133.82;55.17;;;13.10;99.90;;;;;;5055539;28;20392;-59
2022/10/14 01:02:29;;;;;;;111.28;50.28;;;12.70;99.90;;;;;;5055275;28;20115;-59
2022/10/14 01:04:55;;;;;;;119.93;50.80;;;12.60;99.90;;;;;;5055469;28;20112;-59
2022/10/14 01:07:48;;;;;;;93.78;47.08;;;12.60;99.90;;;;;;5055425;28;20560;-59
2022/10/14 01:10:30;;;;;;;94.72;46.28;;;12.50;99.90;;;;;;5055361;28;20060;-59
2022/10/14 01:13:35;;;;;;;110.13;47.83;;;12.30;99.90;;;;;;5055097;28;20037;-59
2022/10/14 01:16:13;;;;;;;92.78;46.20;;;12.50;99.90;;;;;;5053818;28;20120;-59
2022/10/14 01:18:54;;;;;;;84.43;42.20;;;12.60;99.90;;;;;;5054989;28;20037;-59
2022/10/14 01:21:35;;;;;;;81.47;41.63;;;12.60;99.90;;;;;;5055112;28;20040;-59
2022/10/14 01:24:13;;;;;;;88.85;41.45;;;12.30;99.90;;;;;;5055193;28;20394;-59
2022/10/14 01:26:50;;;;;;;81.68;41.28;;;12.00;99.90;;;;;;5054584;28;20041;-59
2022/10/14 01:29:50;;;;;;;84.95;42.60;;;12.20;99.90;;;;;;5054895;28;20040;-59
2022/10/14 01:32:24;;;;;;;112.18;44.70;;;12.40;99.90;;;;;;5054839;28;20085;-59
2022/10/14 01:35:05;;;;;;;94.75;42.97;;;12.30;99.90;;;;;;5054892;28;20539;-59
2022/10/14 01:37:35;;;;;;;92.03;43.00;;;11.50;99.90;;;;;;5054737;28;20036;-59
2022/10/14 01:40:07;;;;;;;114.65;45.78;;;12.40;99.90;;;;;;5054485;28;20049;-59
2022/10/14 01:42:39;;;;;;;76.88;40.05;;;12.10;99.90;;;;;;5054719;28;20552;-59
2022/10/14 01:45:13;;;;;;;102.10;44.08;;;12.40;99.90;;;;;;5054745;28;20051;-59
2022/10/14 01:47:40;;;;;;;108.82;45.15;;;11.40;99.90;;;;;;5054610;28;20037;-62
2022/10/14 01:50:19;;;;;;;108.18;44.50;;;12.30;99.90;;;;;;5054573;28;20396;-63
2022/10/14 01:53:00;;;;;;;93.72;41.22;;;12.10;99.90;;;;;;5053659;28;20060;-62
2022/10/14 01:55:32;;;;;;;101.07;41.40;;;11.80;99.90;;;;;;5054639;28;20395;-62
2022/10/14 01:58:00;;;;;;;75.07;38.55;;;11.90;99.90;;;;;;5054325;28;20045;-59
2022/10/14 02:00:26;;;;;;;120.18;44.47;;;12.10;99.90;;;;;;5053528;28;20402;-59
2022/10/14 02:02:55;;;;;;;123.20;43.47;;;12.10;99.90;;;;;;5054221;28;20128;-59
2022/10/14 02:05:34;;;;;;;224.63;50.45;;;11.90;99.90;;;;;;5054168;28;20072;-59
2022/10/14 02:08:27;;;;;;;154.35;39.35;;;12.00;99.90;;;;;;5054358;28;20041;-59
2022/10/14 02:11:14;;;;;;;345.27;44.90;;;12.30;99.90;;;;;;5054027;28;20053;-59
2022/10/14 02:13:55;;;;;;;482.98;47.17;;;11.90;99.90;;;;;;5054268;28;20080;-60
2022/10/14 02:16:23;;;;;;;514.80;41.72;;;12.00;99.90;;;;;;5054188;28;20164;-59
2022/10/14 02:18:55;;;;;;;443.17;38.40;;;11.50;99.90;;;;;;5053850;28;20485;-59
2022/10/14 02:21:32;;;;;;;422.25;39.38;;;11.40;99.90;;;;;;5053937;28;20044;-59
2022/10/14 02:24:13;;;;;;;469.60;41.88;;;11.50;99.90;;;;;;5054080;28;20060;-59
2022/10/14 02:26:41;;;;;;;462.02;38.22;;;11.50;99.90;;;;;;5053789;28;20037;-59
2022/10/14 02:29:08;;;;;;;400.33;33.45;;;11.60;99.90;;;;;;5053829;28;20112;-59
2022/10/14 02:31:36;;;;;;;292.23;29.67;;;12.00;99.90;;;;;;5036046;28;20076;-59
2022/10/14 02:34:08;;;;;;;152.95;27.48;;;11.60;99.90;;;;;;5054204;28;20083;-59
2022/10/14 02:36:35;;;;;;;195.48;28.15;;;12.60;99.90;;;;;;5053382;28;20045;-59
2022/10/14 02:39:02;;;;;;;349.70;32.40;;;11.60;99.90;;;;;;5053364;28;20047;-59
2022/10/14 02:41:34;;;;;;;303.02;33.58;;;11.50;99.90;;;;;;5053678;28;20116;-59
2022/10/14 02:44:00;;;;;;;310.80;33.70;;;11.20;99.90;;;;;;5054161;28;20052;-59
2022/10/14 02:46:27;;;;;;;271.95;34.83;;;11.60;99.90;;;;;;5053431;28;20087;-58
2022/10/14 02:48:53;;;;;;;269.45;32.08;;;11.50;99.90;;;;;;5053250;28;20048;-59
2022/10/14 02:51:20;;;;;;;342.67;33.05;;;12.40;99.90;;;;;;5053392;28;20033;-59
2022/10/14 02:53:45;;;;;;;386.88;32.70;;;11.40;99.90;;;;;;5053351;28;20559;-59
2022/10/14 02:56:13;;;;;;;471.00;32.22;;;11.40;99.90;;;;;;5053438;28;20130;-59
2022/10/14 02:58:40;;;;;;;317.33;28.45;;;;;;;;;;5053275;28;20048;-59
2022/10/14 03:01:06;;;;;;;283.50;28.80;;;11.60;99.90;;;;;;5053591;28;20044;-59
2022/10/14 03:03:33;;;;;;;253.68;29.50;;;11.40;99.90;;;;;;5053420;28;20044;-59
2022/10/14 03:06:00;;;;;;;253.07;28.02;;;10.20;99.90;;;;;;5053074;28;20508;-59
2022/10/14 03:08:26;;;;;;;250.65;30.17;;;11.40;99.90;;;;;;5053271;28;20400;-59
2022/10/14 03:10:55;;;;;;;254.43;29.58;;;;;;;;;;5053344;28;20110;-59
2022/10/14 03:13:22;;;;;;;341.00;28.55;;;11.40;99.90;;;;;;5053196;28;20045;-59
2022/10/14 03:15:49;;;;;;;207.57;27.73;;;11.30;99.90;;;;;;5051716;28;20044;-59
2022/10/14 03:18:17;;;;;;;397.17;37.50;;;11.20;99.90;;;;;;5053181;28;20041;-59
2022/10/14 03:20:46;;;;;;;372.05;34.78;;;11.30;99.90;;;;;;5052950;28;20477;-59
2022/10/14 03:23:12;;;;;;;230.75;33.30;;;11.30;99.90;;;;;;5052846;28;20099;-59
2022/10/14 03:25:37;;;;;;;278.75;36.78;;;11.50;99.90;;;;;;5053078;28;20041;-59
2022/10/14 03:28:03;;;;;;;212.40;39.13;;;11.30;99.90;;;;;;5053102;28;20516;-63
2022/10/14 03:30:29;;;;;;;139.25;36.10;;;11.40;99.90;;;;;;5052810;28;20044;-59
2022/10/14 03:32:59;;;;;;;198.52;44.42;;;11.50;99.90;;;;;;5051883;28;20063;-59
2022/10/14 03:35:26;;;;;;;164.50;43.72;;;11.50;99.90;;;;;;5053057;28;20412;-59
2022/10/14 03:37:53;;;;;;;143.80;45.72;;;;;;;;;;5052921;28;20091;-59
2022/10/14 03:40:20;;;;;;;140.90;47.22;;;10.80;99.90;;;;;;5051549;28;20048;-58
2022/10/14 03:42:46;;;;;;;134.45;44.45;;;;;;;;;;5052828;28;20045;-59
2022/10/14 03:45:11;;;;;;;157.52;50.58;;;11.40;99.90;;;;;;5052675;28;20049;-59
2022/10/14 03:47:46;;;;;;;168.35;49.13;;;11.40;99.90;;;;;;5053022;28;20190;-59
2022/10/14 03:50:12;;;;;;;188.48;53.63;;;10.60;99.90;;;;;;5056550;28;20072;-59
2022/10/14 03:52:42;;;;;;;161.35;49.30;;;11.10;99.90;;;;;;5055682;28;20091;-59
2022/10/14 03:55:11;;;;;;;147.57;49.75;;;11.50;99.90;;;;;;5056706;28;20041;-59
2022/10/14 03:57:41;;;;;;;151.13;48.80;;;11.70;99.90;;;;;;5056470;28;20051;-59
2022/10/14 04:00:08;;;;;;;153.18;49.20;;;12.00;99.90;;;;;;5056629;28;20116;-59
2022/10/14 04:02:34;;;;;;;149.30;49.60;;;11.90;99.90;;;;;;5056772;28;20048;-59
2022/10/14 04:05:00;;;;;;;155.07;51.42;;;11.70;99.90;;;;;;5056556;28;20029;-59
2022/10/14 04:07:26;;;;;;;151.38;49.30;;;11.80;99.90;;;;;;5056481;28;20047;-59
2022/10/14 04:09:51;;;;;;;146.60;48.90;;;11.70;99.90;;;;;;5056376;28;20072;-59
2022/10/14 04:12:17;;;;;;;136.00;47.60;;;11.70;99.90;;;;;;5056192;28;20048;-59
2022/10/14 04:14:43;;;;;;;123.28;46.88;;;11.70;99.90;;;;;;5054064;28;20053;-59
2022/10/14 04:17:10;;;;;;;143.45;49.40;;;12.00;99.90;;;;;;5056137;28;20116;-59
2022/10/14 04:19:36;;;;;;;139.45;49.28;;;11.70;99.90;;;;;;5056300;28;20468;-59
2022/10/14 04:22:01;;;;;;;116.68;45.70;;;12.00;99.90;;;;;;5055773;28;20497;-59
2022/10/14 04:24:27;;;;;;;138.88;47.38;;;11.70;99.90;;;;;;5056102;28;20496;-59
2022/10/14 04:26:53;;;;;;;120.50;47.15;;;11.60;99.90;;;;;;5053625;28;20052;-59
2022/10/14 04:29:18;;;;;;;136.57;46.78;;;11.80;99.90;;;;;;5054220;28;20037;-59
2022/10/14 04:31:45;;;;;;;123.43;47.00;;;;;;;;;;5052816;28;20098;-59
2022/10/14 04:34:12;;;;;;;108.97;44.08;;;11.30;99.90;;;;;;5054017;28;20045;-59
2022/10/14 04:36:39;;;;;;;122.38;46.25;;;11.80;99.90;;;;;;5053958;28;20037;-59
2022/10/14 04:39:05;;;;;;;125.72;46.25;;;;;;;;;;5053783;28;20405;-63
2022/10/14 04:41:34;;;;;;;127.32;46.40;;;11.80;99.90;;;;;;5054273;28;20037;-59
2022/10/14 04:44:02;;;;;;;120.47;45.42;;;11.50;99.90;;;;;;5055918;28;20489;-59
2022/10/14 04:46:30;;;;;;;126.28;44.92;;;11.40;99.90;;;;;;5055509;28;20382;-59
2022/10/14 04:48:56;;;;;;;118.68;44.65;;;11.60;99.90;;;;;;5055808;28;20063;-59
2022/10/14 04:51:21;;;;;;;112.35;43.85;;;11.70;99.90;;;;;;5055555;28;20041;-60
2022/10/14 04:53:47;;;;;;;114.57;43.05;;;11.70;99.90;;;;;;5055457;28;20048;-59
2022/10/14 04:56:13;;;;;;;106.10;43.40;;;;;;;;;;5055747;28;20040;-60
2022/10/14 04:58:39;;;;;;;86.60;38.30;;;11.20;99.90;;;;;;5055731;28;20048;-60
2022/10/14 05:01:06;;;;;;;91.68;39.30;;;11.60;99.90;;;;;;5054614;28;20103;-59
2022/10/14 05:03:32;;;;;;;92.00;40.80;;;11.70;99.90;;;;;;5054234;28;20033;-60
2022/10/14 05:05:59;;;;;;;88.20;39.63;;;11.70;99.90;;;;;;5055383;28;20076;-59
2022/10/14 05:08:25;;;;;;;85.22;38.13;;;11.40;99.90;;;;;;5055257;28;20040;-59
2022/10/14 05:10:52;;;;;;;80.43;36.70;;;12.20;99.90;;;;;;5055253;28;20370;-59
2022/10/14 05:13:18;;;;;;;78.13;35.70;;;11.70;99.90;;;;;;5055194;28;20041;-59
2022/10/14 05:15:48;;;;;;;74.32;33.78;;;11.80;99.90;;;;;;5055292;28;20037;-62
2022/10/14 05:18:14;;;;;;;71.93;33.38;;;11.20;99.90;;;;;;5055054;28;20167;-63
2022/10/14 05:20:39;;;;;;;66.35;33.47;;;11.50;99.90;;;;;;5054861;28;20116;-62
2022/10/14 05:23:06;;;;;;;65.95;32.35;;;11.80;99.90;;;;;;5051658;28;20063;-62
2022/10/14 05:25:35;;;;;;;70.70;31.45;;;11.90;99.90;;;;;;5051744;28;20405;-63
2022/10/14 05:28:01;;;;;;;67.40;30.50;;;12.20;99.90;;;;;;5051953;28;20400;-62
2022/10/14 05:30:27;;;;;;;55.45;28.00;;;;;;;;;;5053014;28;20041;-63
2022/10/14 05:32:53;;;;;;;52.80;27.65;;;11.50;99.90;;;;;;5053638;28;20045;-63
2022/10/14 05:35:18;;;;;;;56.17;28.17;;;11.20;99.90;;;;;;5053130;28;20048;-62
2022/10/14 05:37:44;;;;;;;56.85;29.10;;;;;;;;;;5054626;28;20120;-62
2022/10/14 05:40:10;;;;;;;64.40;29.45;;;11.70;99.90;;;;;;5054739;28;20393;-59
2022/10/14 05:42:36;;;;;;;74.32;31.60;;;11.20;99.90;;;;;;5054775;28;20040;-56
2022/10/14 05:45:02;;;;;;;65.53;29.85;;;11.40;99.90;;;;;;5054939;28;20437;-58
2022/10/14 05:47:28;;;;;;;72.32;30.77;;;11.60;99.90;;;;;;5054739;28;20150;-62
2022/10/14 05:49:53;;;;;;;68.45;32.63;;;11.20;99.90;;;;;;5054435;28;20048;-62
2022/10/14 05:52:19;;;;;;;72.38;33.17;;;10.90;99.90;;;;;;5054599;28;20040;-62
2022/10/14 05:54:45;;;;;;;73.10;32.78;;;12.50;99.90;;;;;;5054412;28;20098;-59
2022/10/14 05:57:11;;;;;;;74.22;31.92;;;;;;;;;;5053502;28;20056;-59
2022/10/14 05:59:36;;;;;;;63.08;29.55;;;11.30;99.90;;;;;;5054341;28;20124;-59
2022/10/14 06:02:02;;;;;;;68.40;30.92;;;11.70;99.90;;;;;;5054237;28;20111;-59
2022/10/14 06:04:28;;;;;;;70.57;31.13;;;11.70;99.90;;;;;;5053141;28;20470;-59
2022/10/14 06:06:55;;;;;;;67.97;29.77;;;;;;;;;;5052965;28;20045;-59
2022/10/14 06:09:23;;;;;;;58.05;28.38;;;11.20;99.90;;;;;;5054093;28;20044;-59
2022/10/14 06:11:49;;;;;;;57.70;28.05;;;11.50;99.90;;;;;;5054161;28;20044;-59
2022/10/14 06:14:16;;;;;;;63.33;28.95;;;11.50;99.90;;;;;;5053956;28;20044;-59
2022/10/14 06:16:42;;;;;;;55.60;27.58;;;;;;;;;;5054468;28;20040;-59
2022/10/14 06:19:07;;;;;;;62.83;29.35;;;12.50;99.90;;;;;;5053791;28;20389;-59
2022/10/14 06:21:33;;;;;;;61.05;29.33;;;12.00;99.90;;;;;;5053629;28;20037;-59
2022/10/14 06:23:59;;;;;;;69.65;29.65;;;;;;;;;;5053135;28;20052;-59
2022/10/14 06:26:25;;;;;;;69.63;30.23;;;11.70;99.90;;;;;;5053876;28;20045;-59
2022/10/14 06:28:51;;;;;;;56.22;26.10;;;11.10;99.90;;;;;;5053619;28;20429;-62
2022/10/14 06:31:17;;;;;;;60.72;28.20;;;;;;;;;;5054120;28;20405;-62
2022/10/14 06:33:43;;;;;;;54.50;27.10;;;10.90;99.90;;;;;;5053740;28;20041;-62
2022/10/14 06:36:12;;;;;;;53.88;27.85;;;;;;;;;;5053293;28;20465;-63
2022/10/14 06:38:38;;;;;;;52.85;27.48;;;11.90;99.90;;;;;;5053864;28;20427;-63
2022/10/14 06:41:03;;;;;;;57.92;28.13;;;11.70;99.90;;;;;;5053523;28;20047;-63
2022/10/14 06:43:29;;;;;;;58.75;28.50;;;11.70;99.90;;;;;;5053545;28;20135;-63
2022/10/14 06:45:57;;;;;;;56.20;27.52;;;12.20;99.90;;;;;;5053429;28;20063;-63
2022/10/14 06:48:23;;;;;;;54.75;28.92;;;;;;;;;;5053205;28;20037;-62
2022/10/14 06:50:48;;;;;;;57.67;28.45;;;12.10;99.90;;;;;;5053355;28;20552;-63
2022/10/14 06:53:14;;;;;;;54.97;28.00;;;11.50;99.90;;;;;;5053184;28;20080;-63
2022/10/14 06:55:40;;;;;;;57.30;28.75;;;12.30;99.90;;;;;;5052504;28;20535;-63
2022/10/14 06:58:06;;;;;;;50.65;27.58;;;;;;;;;;5051422;28;20559;-63
2022/10/14 07:00:32;;;;;;;56.70;28.75;;;11.60;99.90;;;;;;5053010;28;20044;-63
2022/10/14 07:02:58;;;;;;;51.17;27.67;;;12.30;99.90;;;;;;5053150;28;20116;-62
2022/10/14 07:05:26;;;;;;;51.17;27.33;;;11.60;99.90;;;;;;5053107;28;20124;-63
2022/10/14 07:07:52;;;;;;;58.85;27.95;;;;;;;;;;5053280;28;20040;-62
2022/10/14 07:10:20;;;;;;;59.10;27.40;;;12.30;99.90;;;;;;5053344;28;20493;-63
2022/10/14 07:12:45;;;;;;;55.22;27.95;;;12.60;99.90;;;;;;5052983;28;20056;-62
2022/10/14 07:15:11;;;;;;;49.78;26.73;;;11.60;99.90;;;;;;5049120;28;20393;-61
2022/10/14 07:17:37;;;;;;;50.25;27.10;;;12.00;99.90;;;;;;5048513;28;20076;-61
2022/10/14 07:20:03;;;;;;;52.65;27.70;;;12.00;99.90;;;;;;5052048;28;20033;-61
2022/10/14 07:22:28;;;;;;;47.08;25.98;;;12.30;99.90;;;;;;5051446;28;20132;-60
2022/10/14 07:24:55;;;;;;;49.42;25.98;;;;;;;;;;5058032;28;20040;-60
2022/10/14 07:27:21;;;;;;;51.40;26.35;;;12.20;99.90;;;;;;5058322;28;20052;-60
2022/10/14 07:29:47;;;;;;;49.13;25.45;;;12.50;99.90;;;;;;5057275;28;20071;-60
2022/10/14 07:32:13;;;;;;;50.22;26.13;;;;;;;;;;5057216;28;20084;-61
2022/10/14 07:34:41;;;;;;;45.47;24.83;;;12.70;99.90;;;;;;5058821;28;20051;-63
2022/10/14 07:37:06;;;;;;;47.25;24.73;;;12.00;99.90;;;;;;5059025;28;20041;-60
2022/10/14 07:39:36;;;;;;;48.95;25.52;;;12.30;99.90;;;;;;5058360;28;20128;-60
2022/10/14 07:42:02;;;;;;;47.42;24.80;;;12.10;99.90;;;;;;5058494;28;20041;-60
2022/10/14 07:44:29;;;;;;;55.13;27.52;;;12.30;99.90;;;;;;5058188;28;20498;-61
2022/10/14 07:46:57;;;;;;;50.80;25.98;;;12.40;99.90;;;;;;5052477;28;20045;-60
2022/10/14 07:49:26;;;;;;;54.85;27.52;;;12.20;99.90;;;;;;5037207;28;20462;-60
2022/10/14 07:51:52;;;;;;;51.40;27.02;;;12.60;99.90;;;;;;5043593;28;20125;-60
2022/10/14 07:54:21;;;;;;;55.47;28.58;;;12.60;99.90;;;;;;5059309;28;20069;-61
2022/10/14 07:56:50;;;;;;;58.08;29.27;;;12.60;99.90;;;;;;5059059;28;20036;-60
2022/10/14 07:59:17;;;;;;;56.50;29.67;;;12.20;99.90;;;;;;5059015;28;20451;-61
2022/10/14 08:01:49;;;;;;;59.85;29.42;;;12.40;99.90;;;;;;5058042;28;20041;-60
2022/10/14 08:04:15;;;;;;;68.72;32.10;;;;;;;;;;5059191;28;20048;-60
2022/10/14 08:06:41;;;;;;;68.18;31.70;;;12.40;99.90;;;;;;5059364;28;20037;-61
2022/10/14 08:09:09;;;;;;;62.67;31.45;;;12.50;99.90;;;;;;5059613;28;20040;-61
2022/10/14 08:11:35;;;;;;;69.22;33.13;;;12.30;99.90;;;;;;5059075;28;20080;-61
2022/10/14 08:14:01;;;;;;;72.97;34.30;;;12.60;99.90;;;;;;5059432;28;20456;-60
2022/10/14 08:16:31;;;;;;;72.95;35.05;;;12.30;99.90;;;;;;5059191;28;20040;-61
2022/10/14 08:19:03;;;;;;;77.47;36.65;;;12.80;99.90;;;;;;5059035;28;20462;-60
2022/10/14 08:21:33;;;;;;;72.95;35.55;;;12.70;99.90;;;;;;5059042;28;20039;-57
2022/10/14 08:23:59;;;;;;;94.63;37.90;;;12.70;99.90;;;;;;5052737;28;20401;-57
2022/10/14 08:26:35;;;;;;;83.75;37.00;;;12.60;99.90;;;;;;5053440;28;20080;-57
2022/10/14 08:29:10;;;;;;;87.40;37.50;;;12.30;99.90;;;;;;5058981;28;20508;-57
2022/10/14 08:31:38;;;;;;;83.97;37.10;;;12.00;99.90;;;;;;5059231;28;20063;-57
2022/10/14 08:34:05;;;;;;;91.97;37.70;;;13.00;99.90;;;;;;5059010;28;20051;-57
2022/10/14 08:36:31;;;;;;;94.93;38.83;;;12.70;99.90;;;;;;5054306;28;20512;-60
2022/10/14 08:38:58;;;;;;;89.00;37.85;;;12.90;99.90;;;;;;5054175;28;20525;-61
2022/10/14 08:41:40;;;;;;;94.97;38.67;;;12.90;99.90;;;;;;5053955;28;20119;-61
2022/10/14 08:44:09;;;;;;;91.93;36.70;;;12.70;99.90;;;;;;5055456;28;20163;-61
2022/10/14 08:46:46;;;;;;;85.68;37.05;;;12.70;99.90;;;;;;5054947;28;20044;-61
2022/10/14 08:49:45;;;;;;;85.10;36.33;;;13.00;99.90;;;;;;5055867;28;20045;-61
2022/10/14 08:52:42;;;;;;;77.80;35.35;;;12.90;99.90;;;;;;5055731;28;20049;-61
2022/10/14 08:55:36;;;;;;;79.05;35.85;;;12.80;99.90;;;;;;5052174;28;20057;-61
2022/10/14 08:58:06;;;;;;;83.82;36.03;;;12.80;99.90;;;;;;5050635;28;20053;-61
2022/10/14 09:00:34;;;;;;;84.75;36.05;;;13.10;99.90;;;;;;5055523;28;20033;-61
2022/10/14 09:03:06;;;;;;;93.05;36.78;;;12.80;99.90;;;;;;5055219;28;20092;-61
2022/10/14 09:05:33;;;;;;;90.55;36.65;;;13.40;99.90;;;;;;5055367;28;20108;-61
2022/10/14 09:07:59;;;;;;;93.30;37.67;;;12.50;99.90;;;;;;5055182;28;20401;-61
2022/10/14 09:10:35;;;;;;;86.93;36.40;;;13.10;99.90;;;;;;5055270;28;20073;-61
2022/10/14 09:13:18;;;;;;;89.45;36.45;;;12.90;99.90;;;;;;5055239;28;20394;-61
2022/10/14 09:16:01;;;;;;;92.35;38.28;;;13.00;99.90;;;;;;5055151;28;20374;-61
2022/10/14 09:19:00;;;;;;;82.60;35.90;;;12.70;99.90;;;;;;5054874;28;20084;-61
2022/10/14 09:21:34;;;;;;;81.22;34.75;;;13.00;99.90;;;;;;5038795;28;20105;-61
2022/10/14 09:24:16;;;;;;;96.03;38.27;;;13.20;99.90;;;;;;5053710;28;20045;-58
2022/10/14 09:26:44;;;;;;;78.50;35.00;;;13.20;99.90;;;;;;5054716;28;20314;-58
2022/10/14 09:29:24;;;;;;;82.97;36.28;;;12.90;99.90;;;;;;5054911;28;20102;-58
2022/10/14 09:32:00;;;;;;;76.63;34.75;;;13.90;99.90;;;;;;5055017;28;20043;-59
2022/10/14 09:34:35;;;;;;;84.95;35.15;;;13.20;99.90;;;;;;5054919;28;20048;-59
2022/10/14 09:37:20;;;;;;;81.20;35.45;;;13.30;99.90;;;;;;5054649;28;20088;-62
2022/10/14 09:39:48;;;;;;;88.15;35.78;;;13.70;99.90;;;;;;5054558;28;20037;-61
2022/10/14 09:42:20;;;;;;;81.05;34.13;;;13.40;99.90;;;;;;5053123;28;20105;-62
2022/10/14 09:45:04;;;;;;;84.07;35.70;;;13.30;99.90;;;;;;5053552;28;20076;-61
2022/10/14 09:47:30;;;;;;;83.88;35.45;;;13.40;99.90;;;;;;5053838;28;20047;-62
2022/10/14 09:49:59;;;;;;;83.45;35.35;;;13.30;99.90;;;;;;5053617;28;20084;-58
2022/10/14 09:52:28;;;;;;;86.43;35.80;;;13.30;99.90;;;;;;5053065;28;20049;-58
2022/10/14 09:54:57;;;;;;;90.95;36.17;;;13.30;99.90;;;;;;5052555;28;20033;-57
2022/10/14 09:57:24;;;;;;;92.30;35.30;;;13.00;99.90;;;;;;5053349;28;20049;-58
2022/10/14 09:59:59;;;;;;;95.05;36.70;;;13.50;99.90;;;;;;5053760;28;20110;-58
2022/10/14 10:02:40;;;;;;;88.32;35.83;;;13.40;99.90;;;;;;5053835;28;20091;-58
2022/10/14 10:05:26;;;;;;;87.35;35.65;;;13.10;99.90;;;;;;5054123;28;20043;-58
2022/10/14 10:08:13;;;;;;;98.15;36.15;;;12.70;99.90;;;;;;5054484;28;20040;-58
2022/10/14 10:11:17;;;;;;;;;;;13.30;99.90;;;;;;5038654;28;20497;-58
2022/10/14 10:13:44;;;;;;;96.93;35.83;;;13.50;99.90;;;;;;5063872;28;20002;-58
2022/10/14 10:16:33;;;;;;;93.55;35.08;;;13.60;99.90;;;;;;5054911;28;20040;-58
2022/10/14 10:19:19;;;;;;;86.30;34.25;;;13.20;99.90;;;;;;5040390;28;20051;-58
2022/10/14 10:21:47;;;;;;;81.68;34.30;;;;;;;;;;5052923;28;20068;-58
2022/10/14 10:24:20;;;;;;;93.03;35.47;;;13.40;99.90;;;;;;5052083;28;20037;-58
2022/10/14 10:26:49;;;;;;;78.82;34.70;;;13.70;99.90;;;;;;5052058;28;20122;-58
2022/10/14 10:29:24;;;;;;;96.40;37.05;;;13.50;99.90;;;;;;5045914;28;20489;-59
2022/10/14 10:32:10;;;;;;;88.47;34.85;;;13.30;99.90;;;;;;5042962;28;20061;-58
2022/10/14 10:34:48;;;;;;;82.68;35.13;;;13.20;99.90;;;;;;5049336;28;20466;-58
2022/10/14 10:37:25;;;;;;;106.00;37.65;;;13.20;99.90;;;;;;5053561;28;20048;-58
2022/10/14 10:40:21;;;;;;;89.63;36.10;;;13.30;99.90;;;;;;5053575;28;20116;-58
2022/10/14 10:42:59;;;;;;;96.53;38.17;;;13.30;99.90;;;;;;5053739;28;20037;-58
2022/10/14 10:45:59;;;;;;;96.10;38.05;;;13.60;99.90;;;;;;5046192;28;20045;-58
2022/10/14 10:48:44;;;;;;;105.85;40.35;;;13.50;99.90;;;;;;5027484;28;20490;-58
2022/10/14 10:51:48;;;;;;;107.78;40.58;;;13.20;99.90;;;;;;5029950;28;20084;-58
2022/10/14 10:54:36;;;;;;;99.43;40.40;;;13.70;99.90;;;;;;5029309;28;20151;-58
2022/10/14 10:57:45;;;;;;;103.45;40.30;;;13.30;99.90;;;;;;5029771;28;20532;-58
2022/10/14 11:00:22;;;;;;;110.65;42.13;;;13.70;99.90;;;;;;4990172;28;20050;-58
2022/10/14 11:03:08;;;;;;;114.07;42.75;;;14.00;99.90;;;;;;4990386;28;20042;-58
2022/10/14 11:06:03;;;;;;;;;;;13.50;99.90;;;;;;4991289;28;20046;-58
2022/10/14 11:12:01;;;;;;;106.15;43.67;;;13.60;99.90;;;;;;4990798;28;20103;-58
2022/10/14 11:14:38;;;;;;;114.55;46.33;;;13.60;99.90;;;;;;4990887;28;20567;-58
2022/10/14 11:17:38;;;;;;;119.70;45.92;;;13.50;99.90;;;;;;4990197;28;20051;-58
2022/10/14 11:20:25;;;;;;;118.97;46.53;;;14.10;99.90;;;;;;4990199;28;20049;-58
2022/10/14 11:23:29;;;;;;;114.82;45.97;;;13.70;99.90;;;;;;4990596;28;20446;-58
2022/10/14 11:26:05;;;;;;;112.00;45.92;;;13.60;99.90;;;;;;4990670;28;20405;-58
2022/10/14 11:28:50;;;;;;;112.78;47.72;;;13.80;99.90;;;;;;4990627;28;20050;-58
2022/10/14 11:31:41;;;;;;;107.93;47.70;;;13.90;99.90;;;;;;4979535;28;20059;-58
2022/10/14 11:34:34;;;;;;;103.90;46.03;;;13.90;99.90;;;;;;4970999;28;20050;-58
2022/10/14 11:37:00;;;;;;;105.45;46.58;;;;;;;;;;5003517;28;20382;-58
2022/10/14 11:39:43;;;;;;;104.38;46.80;;;14.00;99.90;;;;;;5032140;28;20034;-59
2022/10/14 11:42:19;;;;;;;106.60;46.53;;;14.10;99.90;;;;;;5031572;28;20404;-58
2022/10/14 11:44:46;;;;;;;107.07;47.30;;;14.40;99.90;;;;;;5038903;28;20083;-58
2022/10/14 11:47:21;;;;;;;98.85;45.72;;;14.20;99.90;;;;;;5052293;28;20077;-58
2022/10/14 11:50:00;;;;;;;96.53;45.67;;;14.30;99.90;;;;;;5048323;28;20079;-58
2022/10/14 11:52:41;;;;;;;95.68;44.53;;;14.40;99.90;;;;;;5046287;28;20386;-59
2022/10/14 11:55:25;;;;;;;89.13;44.03;;;14.40;99.90;;;;;;5042943;28;20041;-58
2022/10/14 11:57:55;;;;;;;88.25;43.50;;;14.20;99.90;;;;;;5057652;28;20088;-58
2022/10/14 12:00:26;;;;;;;89.60;43.75;;;14.10;99.90;;;;;;5050764;28;20048;-58
2022/10/14 12:03:18;;;;;;;88.50;43.28;;;14.40;99.90;;;;;;5052179;28;20426;-58
2022/10/14 12:06:14;;;;;;;89.65;44.30;;;14.40;99.90;;;;;;5047649;28;20124;-58
2022/10/14 12:09:04;;;;;;;91.03;45.42;;;14.40;99.90;;;;;;5051551;28;20132;-59
2022/10/14 12:11:50;;;;;;;89.38;43.85;;;14.40;99.90;;;;;;5056348;28;20550;-59
2022/10/14 12:14:16;;;;;;;83.00;42.53;;;;;;;;;;5055807;28;20048;-59
2022/10/14 12:16:46;;;;;;;83.95;43.03;;;14.20;99.90;;;;;;5056137;28;20370;-59
2022/10/14 12:19:17;;;;;;;73.15;39.97;;;14.40;99.90;;;;;;5056138;28;20083;-59
2022/10/14 12:21:52;;;;;;;86.22;43.38;;;14.70;99.90;;;;;;5054437;28;20041;-59
2022/10/14 12:24:22;;;;;;;78.80;42.22;;;14.40;99.90;;;;;;5056234;28;20128;-59
2022/10/14 12:27:03;;;;;;;69.65;39.17;;;14.50;99.90;;;;;;5056219;28;20068;-58
2022/10/14 12:29:41;;;;;;;63.05;36.92;;;14.10;99.90;;;;;;5054118;28;20044;-58
2022/10/14 12:32:19;;;;;;;59.42;36.17;;;14.80;99.90;;;;;;5054549;28;20048;-58
2022/10/14 12:34:52;;;;;;;61.92;35.45;;;14.70;99.90;;;;;;5055802;28;20040;-59
2022/10/14 12:37:33;;;;;;;57.80;35.17;;;14.90;99.90;;;;;;5055717;28;20470;-59
2022/10/14 12:40:02;;;;;;;44.10;30.45;;;14.80;99.90;;;;;;5056007;28;20428;-59
2022/10/14 12:42:34;;;;;;;41.35;29.58;;;15.10;99.90;;;;;;5055968;28;20045;-59
2022/10/14 12:45:21;;;;;;;40.80;29.02;;;15.10;99.90;;;;;;5056045;28;20037;-58
2022/10/14 12:48:05;;;;;;;35.50;26.63;;;14.70;99.90;;;;;;5055618;28;20041;-59
2022/10/14 12:50:42;;;;;;;39.83;27.30;;;15.10;99.90;;;;;;5054763;28;20128;-58
2022/10/14 12:53:27;;;;;;;36.10;26.55;;;14.80;99.90;;;;;;5054685;28;20045;-59
2022/10/14 12:55:56;;;;;;;33.17;25.52;;;14.80;99.90;;;;;;5055774;28;20041;-59
2022/10/14 12:58:26;;;;;;;34.25;25.38;;;14.80;99.90;;;;;;5055476;28;20037;-59
2022/10/14 13:00:55;;;;;;;34.75;25.33;;;14.80;99.90;;;;;;5055434;28;20081;-59